Time;durP1;ratioP1;P1;durP2;ratioP2;P2;SDS_P1;SDS_P2;PMS_P1;PMS_P2;Temp;Humidity;BMP_temperature;BMP_pressure;BME280_temperature;BME280_humidity;BME280_pressure;Samples;Min_cycle;Max_cycle;Signal;HPM_P1;HPM_P2
2023/06/16 00:01:31;;;;;;;10.90;8.30;;;;;;;12.48;81.78;100438.67;79172;277;3027612;-71
2023/06/16 00:04:06;;;;;;;9.30;8.40;;;;;;;12.42;81.57;100439.10;79133;277;3026999;-72
2023/06/16 00:06:42;;;;;;;11.90;9.00;;;;;;;12.36;81.49;100440.06;79160;277;3026961;-72
2023/06/16 00:09:21;;;;;;;9.80;8.80;;;;;;;12.31;81.80;100438.54;79136;277;3027159;-73
2023/06/16 00:11:56;;;;;;;8.60;7.80;;;;;;;12.30;81.79;100436.14;79142;277;3027777;-73
2023/06/16 00:14:33;;;;;;;10.90;8.00;;;;;;;12.24;81.61;100438.85;79854;277;3011447;-73
2023/06/16 00:17:10;;;;;;;9.20;8.30;;;;;;;12.21;81.76;100437.95;79817;277;3011136;-73
2023/06/16 00:19:45;;;;;;;10.20;8.70;;;;;;;12.17;81.65;100434.08;79123;277;3027594;-73
2023/06/16 00:22:25;;;;;;;12.30;9.20;;;;;;;12.14;81.96;100435.12;79827;277;3011551;-70
2023/06/16 00:25:00;;;;;;;9.90;8.90;;;;;;;12.07;82.17;100438.55;79098;277;3027326;-72
2023/06/16 00:27:36;;;;;;;12.80;8.80;;;;;;;12.03;82.17;100432.73;79082;277;3028475;-71
2023/06/16 00:30:15;;;;;;;11.80;9.10;;;;;;;12.03;82.39;100439.05;79066;277;3027166;-73
2023/06/16 00:32:50;;;;;;;9.30;8.50;;;;;;;12.01;82.30;100437.96;78947;277;3027226;-73
2023/06/16 00:35:25;;;;;;;9.90;8.90;;;;;;;12.00;82.68;100438.13;78960;277;3028293;-73
2023/06/16 00:38:01;;;;;;;9.40;8.50;;;;;;;12.02;82.70;100434.20;78984;277;3027522;-73
2023/06/16 00:40:37;;;;;;;10.70;8.80;;;;;;;12.02;83.02;100435.06;79756;277;3013407;-71
2023/06/16 00:43:13;;;;;;;12.60;9.20;;;;;;;12.04;83.12;100433.44;79733;277;3011661;-70
2023/06/16 00:45:50;;;;;;;10.60;9.10;;;;;;;12.06;83.19;100432.30;79763;278;3011498;-73
2023/06/16 00:48:26;;;;;;;11.30;8.60;;;;;;;12.05;83.16;100430.06;79782;277;3012574;-73
2023/06/16 00:51:02;;;;;;;9.70;8.40;;;;;;;12.04;83.19;100430.79;79777;277;3012505;-71
2023/06/16 00:53:39;;;;;;;8.10;7.40;;;;;;;12.04;83.21;100433.61;79694;278;3011659;-73
2023/06/16 00:56:16;;;;;;;8.60;7.50;;;;;;;12.05;83.29;100432.70;78985;278;3027249;-72
2023/06/16 00:58:51;;;;;;;11.80;9.10;;;;;;;12.03;83.13;100434.16;78962;278;3029404;-72
2023/06/16 01:01:28;;;;;;;8.80;7.90;;;;;;;11.99;83.14;100430.85;78974;278;3028287;-72
2023/06/16 01:04:04;;;;;;;8.90;8.00;;;;;;;11.96;83.02;100432.37;78963;277;3027160;-71
2023/06/16 01:06:51;;;;;;;8.80;7.70;;;;;;;11.94;83.01;100429.84;78960;277;3027914;-72
2023/06/16 01:09:31;;;;;;;9.10;8.30;;;;;;;11.92;83.19;100424.84;78966;277;3028369;-77
2023/06/16 01:12:13;;;;;;;9.00;8.10;;;;;;;11.91;83.03;100428.23;78979;278;3028525;-72
2023/06/16 01:14:53;;;;;;;10.20;9.20;;;;;;;11.88;83.17;100426.40;78955;277;3027650;-72
2023/06/16 01:17:29;;;;;;;9.80;8.80;;;;;;;11.88;83.39;100432.01;79059;277;3028807;-72
2023/06/16 01:20:12;;;;;;;9.20;8.20;;;;;;;11.88;83.57;100427.10;78972;277;3028012;-72
2023/06/16 01:23:12;;;;;;;9.40;8.40;;;;;;;11.91;83.68;100425.98;78982;277;3027207;-72
2023/06/16 01:25:47;;;;;;;12.20;9.40;;;;;;;11.89;83.70;100423.60;79009;277;3027136;-70
2023/06/16 01:28:25;;;;;;;10.10;9.10;;;;;;;11.87;83.67;100425.42;78977;277;3026558;-72
2023/06/16 01:31:01;;;;;;;10.30;8.70;;;;;;;11.82;83.57;100422.99;79021;277;3028135;-70
2023/06/16 01:33:36;;;;;;;9.60;8.80;;;;;;;11.78;83.55;100418.92;79015;279;3027056;-73
2023/06/16 01:36:11;;;;;;;11.20;9.40;;;;;;;11.77;83.66;100417.78;78974;278;3026972;-72
2023/06/16 01:38:48;;;;;;;9.90;8.90;;;;;;;11.76;83.31;100414.51;79731;279;3011491;-73
2023/06/16 01:41:23;;;;;;;10.50;9.40;;;;;;;11.70;83.31;100416.32;78985;279;3026672;-73
2023/06/16 01:44:00;;;;;;;9.80;8.90;;;;;;;11.66;83.33;100420.48;79747;279;3011562;-72
2023/06/16 01:46:35;;;;;;;10.20;9.10;;;;;;;11.61;83.32;100425.08;78955;279;3027642;-71
2023/06/16 01:49:11;;;;;;;10.10;9.00;;;;;;;11.54;83.30;100424.49;79650;271;3013112;-72
2023/06/16 01:51:47;;;;;;;10.40;9.00;;;;;;;11.52;83.48;100424.74;78960;279;3028866;-73
2023/06/16 01:54:22;;;;;;;10.30;9.30;;;;;;;11.55;83.89;100424.98;78955;279;3027493;-73
2023/06/16 01:56:58;;;;;;;11.10;10.00;;;;;;;11.56;83.97;100426.66;79727;279;3011545;-72
2023/06/16 01:59:34;;;;;;;11.30;10.00;;;;;;;11.53;83.91;100421.35;78957;278;3026981;-73
2023/06/16 02:02:13;;;;;;;10.10;9.10;;;;;;;11.50;83.69;100422.05;78967;279;3027547;-72
2023/06/16 02:04:51;;;;;;;10.90;9.90;;;;;;;11.45;83.74;100423.45;78977;279;3028482;-72
2023/06/16 02:07:30;;;;;;;10.60;9.30;;;;;;;11.42;83.85;100424.27;78948;279;3027571;-72
2023/06/16 02:10:07;;;;;;;11.20;10.10;;;;;;;11.39;83.80;100422.99;78979;278;3028355;-73
2023/06/16 02:12:42;;;;;;;10.50;9.50;;;;;;;11.36;84.03;100425.41;78994;278;3030161;-71
2023/06/16 02:15:18;;;;;;;11.40;10.30;;;;;;;11.35;84.41;100428.20;79029;279;3026556;-71
2023/06/16 02:17:57;;;;;;;11.30;10.20;;;;;;;11.37;84.58;100431.11;79002;279;3027261;-72
2023/06/16 02:20:33;;;;;;;11.10;9.90;;;;;;;11.41;85.03;100426.09;79033;279;3026871;-72
2023/06/16 02:23:08;;;;;;;11.70;10.60;;;;;;;11.44;85.16;100423.50;78957;279;3028079;-72
2023/06/16 02:25:44;;;;;;;12.20;10.60;;;;;;;11.47;85.01;100423.38;79717;267;3011249;-73
2023/06/16 02:28:21;;;;;;;11.40;10.30;;;;;;;11.46;84.84;100421.50;79624;279;3012900;-73
2023/06/16 02:30:56;;;;;;;10.60;9.60;;;;;;;11.43;84.54;100424.09;78945;279;3027121;-73
2023/06/16 02:33:32;;;;;;;11.90;10.60;;;;;;;11.41;84.60;100425.73;78935;282;3027367;-73
2023/06/16 02:36:09;;;;;;;12.70;10.80;;;;;;;11.36;84.18;100425.23;78902;271;3028492;-70
2023/06/16 02:38:45;;;;;;;12.00;10.90;;;;;;;11.33;84.44;100427.27;78975;278;3027549;-73
2023/06/16 02:41:21;;;;;;;11.60;10.30;;;;;;;11.32;84.38;100428.36;78985;279;3027443;-74
2023/06/16 02:43:56;;;;;;;12.80;10.70;;;;;;;11.29;84.40;100431.77;78958;279;3028524;-73
2023/06/16 02:46:32;;;;;;;11.70;10.10;;;;;;;11.27;84.36;100428.73;78979;279;3027508;-70
2023/06/16 02:49:07;;;;;;;11.50;10.40;;;;;;;11.25;84.49;100432.29;78945;279;3027757;-72
2023/06/16 02:51:43;;;;;;;11.70;10.50;;;;;;;11.22;84.41;100431.37;78972;278;3026993;-73
2023/06/16 02:54:20;;;;;;;11.80;10.80;;;;;;;11.21;84.81;100430.55;79718;279;3011555;-73
2023/06/16 02:56:55;;;;;;;12.20;10.90;;;;;;;11.18;84.85;100427.16;79013;279;3027404;-72
2023/06/16 02:59:31;;;;;;;11.90;10.80;;;;;;;11.20;85.34;100425.67;79713;279;3011420;-72
2023/06/16 03:02:08;;;;;;;12.20;10.90;;;;;;;11.22;85.42;100425.77;79023;278;3027154;-72
2023/06/16 03:04:44;;;;;;;14.30;10.90;;;;;;;11.24;85.50;100426.40;79001;279;3027196;-72
2023/06/16 03:07:19;;;;;;;12.90;11.70;;;;;;;11.31;85.77;100426.66;78964;279;3027177;-72
2023/06/16 03:09:55;;;;;;;12.40;11.30;;;;;;;11.42;86.44;100430.73;78964;279;3028389;-72
2023/06/16 03:12:31;;;;;;;15.50;12.10;;;;;;;11.51;86.66;100426.54;78973;279;3027179;-73
2023/06/16 03:15:08;;;;;;;13.00;11.80;;;;;;;11.60;86.70;100429.50;78921;279;3027458;-73
2023/06/16 03:17:44;;;;;;;11.10;10.00;;;;;;;11.62;86.38;100429.05;78921;279;3030376;-69
2023/06/16 03:20:19;;;;;;;11.10;10.00;;;;;;;11.63;86.41;100433.89;78959;278;3027136;-73
2023/06/16 03:22:55;;;;;;;12.00;10.90;;;;;;;11.68;86.57;100434.21;78485;278;3029070;-72
2023/06/16 03:25:32;;;;;;;12.50;11.20;;;;;;;11.79;86.99;100430.27;78977;278;3027912;-71
2023/06/16 03:28:08;;;;;;;14.40;12.00;;;;;;;11.88;87.11;100432.71;78964;279;3027762;-73
2023/06/16 03:30:45;;;;;;;15.50;12.60;;;;;;;12.00;87.18;100426.64;78976;279;3027891;-70
2023/06/16 03:33:20;;;;;;;13.00;11.40;;;;;;;12.27;87.37;100429.46;78996;277;3027090;-70
2023/06/16 03:35:58;;;;;;;12.20;11.10;;;;;;;12.82;87.39;100430.45;79076;277;3027745;-73
2023/06/16 03:38:34;;;;;;;12.40;11.20;;;;;;;13.46;86.90;100434.11;79039;277;3028068;-73
2023/06/16 03:41:09;;;;;;;11.90;10.50;;;;;;;14.14;87.35;100430.67;78996;277;3026706;-72
2023/06/16 03:43:45;;;;;;;12.10;10.80;;;;;;;14.97;87.27;100432.61;78996;277;3030299;-71
2023/06/16 03:46:21;;;;;;;11.70;10.70;;;;;;;15.81;85.66;100430.26;79021;277;3028040;-72
2023/06/16 03:48:57;;;;;;;11.30;10.20;;;;;;;16.65;83.75;100431.40;79008;277;3028047;-73
2023/06/16 03:51:33;;;;;;;11.00;10.10;;;;;;;17.44;81.60;100431.80;78936;277;3027008;-72
2023/06/16 03:54:11;;;;;;;11.30;10.40;;;;;;;18.25;79.38;100432.37;78982;277;3027702;-73
2023/06/16 03:56:46;;;;;;;10.40;9.50;;;;;;;19.02;76.32;100431.36;78967;277;3027083;-72
2023/06/16 03:59:23;;;;;;;10.30;9.30;;;;;;;19.74;73.40;100432.32;79719;277;3012825;-72
2023/06/16 04:02:06;;;;;;;10.50;9.60;;;;;;;20.44;69.70;100426.90;79018;277;3026676;-71
2023/06/16 04:04:45;;;;;;;11.90;10.00;;;;;;;21.12;67.29;100429.50;78915;277;3027597;-72
2023/06/16 04:07:21;;;;;;;10.00;9.00;;;;;;;21.63;64.44;100423.17;78986;277;3026830;-73
2023/06/16 04:09:57;;;;;;;10.10;9.30;;;;;;;22.06;61.90;100421.65;78924;277;3026676;-72
2023/06/16 04:12:32;;;;;;;9.60;8.70;;;;;;;22.50;59.70;100424.14;78986;277;3029363;-71
2023/06/16 04:15:13;;;;;;;10.10;8.80;;;;;;;23.01;58.14;100420.89;78942;277;3028492;-71
2023/06/16 04:17:49;;;;;;;10.90;8.50;;;;;;;23.51;56.37;100420.11;78959;277;3028403;-72
2023/06/16 04:20:24;;;;;;;8.90;8.10;;;;;;;24.07;54.12;100417.06;78969;277;3026681;-72
2023/06/16 04:23:00;;;;;;;8.10;7.30;;;;;;;24.39;53.42;100413.71;78951;277;3027776;-73
2023/06/16 04:25:35;;;;;;;8.90;8.20;;;;;;;24.29;51.16;100413.77;78948;277;3028223;-72
2023/06/16 04:28:13;;;;;;;10.60;8.40;;;;;;;23.85;51.30;100415.02;79704;267;3012756;-73
2023/06/16 04:30:50;;;;;;;9.10;8.30;;;;;;;23.26;52.26;100417.93;79000;277;3027013;-73
2023/06/16 04:33:26;;;;;;;8.90;8.10;;;;;;;22.87;53.68;100419.66;78937;277;3026640;-74
2023/06/16 04:36:03;;;;;;;8.70;8.00;;;;;;;22.52;54.10;100416.69;78989;277;3028918;-73
2023/06/16 04:38:39;;;;;;;10.20;9.20;;;;;;;22.18;54.88;100420.20;78962;266;3027613;-72
2023/06/16 04:41:14;;;;;;;10.80;9.70;;;;;;;21.92;55.83;100417.34;78989;278;3026653;-73
2023/06/16 04:43:49;;;;;;;17.80;10.70;;;;;;;21.57;56.37;100420.88;78970;277;3028701;-73
2023/06/16 04:46:25;;;;;;;11.60;10.50;;;;;;;21.18;57.12;100419.77;78996;277;3028529;-73
2023/06/16 04:49:01;;;;;;;12.90;10.60;;;;;;;21.06;58.16;100421.06;78942;277;3027577;-73
2023/06/16 04:51:37;;;;;;;12.10;10.60;;;;;;;21.38;58.38;100415.88;79003;277;3027598;-74
2023/06/16 04:54:12;;;;;;;14.00;12.70;;;;;;;21.86;58.23;100413.02;78974;277;3026979;-74
2023/06/16 04:56:48;;;;;;;15.00;13.50;;;;;;;22.24;57.41;100407.52;78979;277;3026682;-72
2023/06/16 04:59:24;;;;;;;16.00;14.40;;;;;;;22.60;56.83;100408.48;79674;277;3011498;-72
2023/06/16 05:02:00;;;;;;;17.70;16.00;;;;;;;23.12;56.37;100411.90;78966;277;3026942;-71
2023/06/16 05:04:37;;;;;;;16.10;14.50;;;;;;;23.85;55.38;100409.11;78937;277;3027381;-71
2023/06/16 05:07:13;;;;;;;14.30;12.90;;;;;;;24.76;53.60;100403.77;79009;277;3027039;-71
2023/06/16 05:09:48;;;;;;;14.00;12.30;;;;;;;25.39;50.40;100400.94;78987;277;3027073;-71
2023/06/16 05:12:25;;;;;;;13.00;11.60;;;;;;;26.00;49.46;100400.29;79795;277;3013099;-74
2023/06/16 05:15:01;;;;;;;13.20;11.90;;;;;;;26.76;47.52;100401.41;78987;277;3028354;-72
2023/06/16 05:17:39;;;;;;;12.50;11.30;;;;;;;27.43;46.31;100403.02;79016;277;3028352;-72
2023/06/16 05:20:15;;;;;;;13.00;11.70;;;;;;;27.95;44.23;100407.69;79055;277;3028204;-72
2023/06/16 05:22:51;;;;;;;17.20;12.90;;;;;;;28.37;43.21;100402.64;78966;278;3028034;-72
2023/06/16 05:25:27;;;;;;;12.70;11.60;;;;;;;28.53;41.86;100402.84;79011;277;3026994;-72
2023/06/16 05:28:03;;;;;;;11.60;10.60;;;;;;;28.85;40.98;100404.14;79678;282;3011377;-73
2023/06/16 05:30:39;;;;;;;12.10;11.20;;;;;;;29.22;40.78;100407.88;79699;277;3013274;-73
2023/06/16 05:33:16;;;;;;;11.80;10.80;;;;;;;29.40;40.19;100406.23;79724;277;3011551;-71
2023/06/16 05:35:52;;;;;;;12.30;11.00;;;;;;;29.69;40.15;100406.30;79763;277;3011541;-72
2023/06/16 05:38:28;;;;;;;11.70;10.60;;;;;;;29.86;38.87;100407.34;79757;277;3012865;-72
2023/06/16 05:41:04;;;;;;;11.50;10.50;;;;;;;29.90;38.04;100405.27;79746;277;3012843;-72
2023/06/16 05:43:40;;;;;;;12.30;11.10;;;;;;;30.04;37.52;100403.30;78993;277;3026583;-72
2023/06/16 05:46:16;;;;;;;10.50;9.60;;;;;;;30.29;36.87;100403.61;79749;277;3011920;-73
2023/06/16 05:48:54;;;;;;;11.50;10.40;;;;;;;30.70;36.33;100407.77;79792;277;3011410;-73
2023/06/16 05:51:29;;;;;;;10.80;9.80;;;;;;;30.95;36.71;100416.08;79015;277;3027218;-73
2023/06/16 05:54:05;;;;;;;9.80;9.00;;;;;;;31.33;35.79;100419.54;79023;277;3027654;-72
2023/06/16 05:56:41;;;;;;;9.20;8.50;;;;;;;31.78;34.78;100421.19;79038;277;3028068;-72
2023/06/16 05:59:18;;;;;;;9.40;8.60;;;;;;;32.07;33.76;100417.33;79052;277;3028194;-72
2023/06/16 06:01:55;;;;;;;9.90;9.00;;;;;;;32.10;33.39;100410.84;78996;277;3028299;-72
2023/06/16 06:04:35;;;;;;;9.20;8.20;;;;;;;32.34;33.13;100407.29;79013;277;3029142;-72
2023/06/16 06:07:10;;;;;;;7.20;6.40;;;;;;;32.30;32.91;100404.77;78943;277;3028201;-72
2023/06/16 06:09:46;;;;;;;8.50;7.50;;;;;;;32.51;32.80;100400.01;79029;277;3027271;-72
2023/06/16 06:12:22;;;;;;;6.20;5.70;;;;;;;32.72;31.11;100400.04;79002;277;3026657;-72
2023/06/16 06:14:58;;;;;;;6.60;5.80;;;;;;;32.94;30.49;100403.13;78977;277;3028555;-72
2023/06/16 06:17:34;;;;;;;6.80;6.20;;;;;;;33.11;30.69;100403.77;78954;277;3027359;-71
2023/06/16 06:20:14;;;;;;;6.40;5.70;;;;;;;33.04;30.29;100403.44;79720;277;3011283;-73
2023/06/16 06:22:50;;;;;;;6.60;6.00;;;;;;;33.36;29.52;100406.31;78977;277;3028165;-73
2023/06/16 06:25:25;;;;;;;8.20;5.60;;;;;;;33.33;29.55;100406.30;78983;277;3027934;-73
2023/06/16 06:28:00;;;;;;;6.20;5.60;;;;;;;33.30;28.91;100403.25;78993;277;3028079;-73
2023/06/16 06:30:38;;;;;;;6.00;5.40;;;;;;;33.15;29.12;100401.17;79010;277;3026622;-73
2023/06/16 06:33:13;;;;;;;5.60;5.10;;;;;;;33.21;29.01;100400.36;79050;277;3027985;-71
2023/06/16 06:35:50;;;;;;;8.30;5.30;;;;;;;33.46;28.93;100401.38;79737;277;3011520;-73
2023/06/16 06:38:26;;;;;;;5.40;4.90;;;;;;;33.62;28.29;100399.27;79716;277;3011617;-72
2023/06/16 06:41:02;;;;;;;5.70;5.20;;;;;;;33.40;27.64;100400.19;79015;277;3027854;-72
2023/06/16 06:43:37;;;;;;;5.10;4.60;;;;;;;33.01;29.02;100401.48;79054;277;3027448;-73
2023/06/16 06:46:15;;;;;;;6.00;5.40;;;;;;;33.13;28.28;100396.63;79791;277;3011366;-73
2023/06/16 06:48:50;;;;;;;5.50;5.10;;;;;;;33.50;27.64;100401.81;79027;277;3028341;-73
2023/06/16 06:51:27;;;;;;;6.10;5.00;;;;;;;33.74;27.06;100396.60;79016;277;3027638;-73
2023/06/16 06:54:02;;;;;;;5.40;4.90;;;;;;;34.20;27.85;100396.91;79005;277;3027196;-73
2023/06/16 06:56:39;;;;;;;6.60;5.30;;;;;;;34.57;26.57;100400.73;79028;277;3027026;-72
2023/06/16 06:59:15;;;;;;;6.00;5.50;;;;;;;34.88;26.84;100407.72;79686;277;3011422;-72
2023/06/16 07:01:51;;;;;;;5.40;5.00;;;;;;;34.90;25.42;100405.82;79068;277;3027464;-78
2023/06/16 07:04:28;;;;;;;5.40;4.90;;;;;;;34.59;25.66;100406.52;79055;277;3027704;-78
2023/06/16 07:07:04;;;;;;;5.00;4.60;;;;;;;34.71;25.72;100407.40;79048;277;3026879;-74
2023/06/16 07:09:40;;;;;;;4.70;4.30;;;;;;;34.86;25.84;100410.55;78959;277;3026894;-71
2023/06/16 07:12:16;;;;;;;5.10;4.60;;;;;;;34.68;25.47;100408.00;78949;278;3027564;-71
2023/06/16 07:14:52;;;;;;;5.40;4.70;;;;;;;34.62;24.92;100409.53;79004;277;3026864;-72
2023/06/16 07:17:30;;;;;;;5.70;4.20;;;;;;;34.50;25.01;100406.92;78979;277;3027246;-72
2023/06/16 07:20:07;;;;;;;5.50;5.00;;;;;;;34.69;26.00;100409.79;78971;277;3028575;-72
2023/06/16 07:22:45;;;;;;;4.90;4.50;;;;;;;34.94;25.88;100412.29;78986;278;3026765;-72
2023/06/16 07:25:21;;;;;;;5.30;4.90;;;;;;;35.31;24.93;100411.64;78974;277;3027847;-73
2023/06/16 07:27:57;;;;;;;4.70;4.40;;;;;;;35.42;25.22;100411.40;79006;277;3027907;-75
2023/06/16 07:30:33;;;;;;;5.50;4.50;;;;;;;35.74;24.50;100408.06;79747;278;3011424;-73
2023/06/16 07:33:10;;;;;;;4.50;4.20;;;;;;;35.85;23.44;100405.70;79699;277;3011485;-73
2023/06/16 07:35:45;;;;;;;5.30;4.80;;;;;;;35.73;23.28;100410.92;78994;277;3027398;-72
2023/06/16 07:38:21;;;;;;;5.00;4.50;;;;;;;35.67;23.45;100410.77;79681;277;3011630;-72
2023/06/16 07:40:57;;;;;;;4.90;4.50;;;;;;;35.87;23.49;100406.48;78948;277;3027369;-73
2023/06/16 07:43:33;;;;;;;4.60;4.20;;;;;;;36.15;23.70;100407.39;79696;278;3011771;-73
2023/06/16 07:46:09;;;;;;;5.70;4.20;;;;;;;36.25;23.78;100408.84;79709;277;3012886;-73
2023/06/16 07:48:46;;;;;;;4.40;4.00;;;;;;;36.35;23.65;100402.05;79742;277;3013221;-73
2023/06/16 07:51:21;;;;;;;4.20;3.80;;;;;;;36.42;22.32;100403.90;78997;277;3028239;-73
2023/06/16 07:53:57;;;;;;;4.60;4.20;;;;;;;36.12;23.31;100400.63;78960;277;3026957;-72
2023/06/16 07:56:32;;;;;;;4.50;4.20;;;;;;;36.10;23.31;100400.44;78941;278;3027616;-72
2023/06/16 07:59:07;;;;;;;5.00;4.00;;;;;;;35.98;23.01;100396.11;78958;277;3027055;-72
2023/06/16 08:01:46;;;;;;;4.50;4.10;;;;;;;35.80;22.95;100399.39;78984;277;3027559;-73
2023/06/16 08:04:22;;;;;;;4.70;4.30;;;;;;;35.40;23.80;100400.77;78972;277;3027377;-72
2023/06/16 08:06:58;;;;;;;4.30;3.90;;;;;;;34.76;24.09;100398.27;79802;277;3011572;-73
2023/06/16 08:09:34;;;;;;;5.20;4.40;;;;;;;34.23;24.36;100394.10;79000;277;3027337;-73
2023/06/16 08:12:12;;;;;;;4.00;3.70;;;;;;;34.07;24.81;100400.83;79691;278;3012998;-73
2023/06/16 08:14:47;;;;;;;4.30;3.90;;;;;;;34.15;24.88;100399.89;78979;278;3028602;-73
2023/06/16 08:17:24;;;;;;;4.50;4.20;;;;;;;33.80;24.53;100397.60;79735;277;3011413;-73
2023/06/16 08:19:59;;;;;;;4.30;4.00;;;;;;;32.93;26.25;100396.91;79001;277;3027156;-73
2023/06/16 08:22:35;;;;;;;3.90;3.60;;;;;;;32.48;26.84;100399.84;78996;277;3027506;-72
2023/06/16 08:25:15;;;;;;;4.80;4.40;;;;;;;32.36;26.73;100397.02;79709;277;3011577;-72
2023/06/16 08:27:50;;;;;;;4.60;4.20;;;;;;;32.02;28.07;100400.24;78968;277;3028001;-73
2023/06/16 08:30:29;;;;;;;4.60;4.20;;;;;;;32.60;28.61;100398.81;79726;277;3013198;-73
2023/06/16 08:33:06;;;;;;;4.50;4.10;;;;;;;32.86;27.03;100397.91;78955;278;3028138;-73
2023/06/16 08:35:41;;;;;;;5.00;4.20;;;;;;;32.23;27.62;100400.61;79034;277;3027863;-72
2023/06/16 08:38:17;;;;;;;5.10;4.20;;;;;;;31.49;28.71;100403.02;79723;277;3012910;-72
2023/06/16 08:40:54;;;;;;;4.10;3.80;;;;;;;30.72;28.96;100402.73;79716;277;3011561;-72
2023/06/16 08:43:29;;;;;;;4.20;3.80;;;;;;;29.98;29.85;100398.34;78969;277;3027824;-72
2023/06/16 08:46:08;;;;;;;5.00;4.20;;;;;;;29.43;30.92;100399.57;78951;277;3027810;-72
2023/06/16 08:48:43;;;;;;;5.00;4.30;;;;;;;29.06;30.46;100400.76;78993;277;3027271;-73
2023/06/16 08:51:23;;;;;;;5.40;4.30;;;;;;;28.86;31.01;100399.73;79774;277;3011352;-73
2023/06/16 08:54:04;;;;;;;4.50;4.10;;;;;;;28.99;31.70;100399.17;78999;277;3026885;-73
2023/06/16 08:56:39;;;;;;;5.10;4.60;;;;;;;29.10;31.10;100398.65;79026;277;3027058;-73
2023/06/16 08:59:15;;;;;;;4.50;4.10;;;;;;;28.81;31.04;100398.34;78972;277;3028029;-73
2023/06/16 09:01:51;;;;;;;4.90;4.50;;;;;;;28.46;31.55;100398.78;79028;277;3027399;-73
2023/06/16 09:04:28;;;;;;;4.60;4.20;;;;;;;28.18;32.60;100395.44;78990;278;3028072;-73
2023/06/16 09:07:04;;;;;;;4.80;4.30;;;;;;;27.90;32.11;100394.23;78983;277;3027896;-73
2023/06/16 09:09:40;;;;;;;4.40;3.90;;;;;;;27.58;32.31;100395.37;78920;278;3026672;-73
2023/06/16 09:12:16;;;;;;;4.30;3.90;;;;;;;27.32;32.60;100394.64;79744;277;3011382;-73
2023/06/16 09:14:53;;;;;;;4.40;4.00;;;;;;;27.13;32.96;100395.46;79664;277;3011449;-74
2023/06/16 09:17:30;;;;;;;4.80;4.40;;;;;;;26.95;33.41;100395.45;78987;277;3027647;-72
2023/06/16 09:20:09;;;;;;;4.90;4.40;;;;;;;26.76;33.61;100389.25;78968;277;3026808;-72
2023/06/16 09:22:45;;;;;;;5.30;4.20;;;;;;;26.75;34.95;100389.48;78982;277;3027165;-73
2023/06/16 09:25:21;;;;;;;6.50;4.30;;;;;;;27.21;34.54;100389.21;79009;277;3027147;-73
2023/06/16 09:27:59;;;;;;;5.90;4.60;;;;;;;27.70;33.73;100386.41;79031;277;3028310;-74
2023/06/16 09:30:35;;;;;;;4.70;3.80;;;;;;;27.89;33.24;100383.21;79035;277;3027554;-73
2023/06/16 09:33:11;;;;;;;4.30;3.90;;;;;;;27.78;33.38;100388.20;79017;277;3027394;-72
2023/06/16 09:35:48;;;;;;;4.10;3.80;;;;;;;27.93;34.36;100380.69;79040;277;3027061;-72
2023/06/16 09:38:24;;;;;;;4.20;3.80;;;;;;;27.98;34.45;100375.93;79001;277;3027065;-72
2023/06/16 09:41:09;;;;;;;4.00;3.60;;;;;;;27.84;34.81;100374.79;79028;277;3028034;-72
2023/06/16 09:43:46;;;;;;;4.30;3.90;;;;;;;27.77;34.57;100373.31;78984;277;3026729;-72
2023/06/16 09:46:23;;;;;;;4.00;3.40;;;;;;;27.92;34.84;100366.90;78992;278;3028246;-74
2023/06/16 09:48:59;;;;;;;4.60;3.40;;;;;;;28.20;33.64;100364.33;78935;267;3026728;-74
2023/06/16 09:51:36;;;;;;;4.10;3.70;;;;;;;28.55;34.16;100359.18;79070;277;3026716;-74
2023/06/16 09:54:13;;;;;;;5.10;3.60;;;;;;;28.88;33.81;100356.80;78990;277;3027166;-74
2023/06/16 09:56:50;;;;;;;4.10;3.80;;;;;;;29.17;32.64;100355.63;78978;277;3028417;-73
2023/06/16 09:59:27;;;;;;;4.60;4.10;;;;;;;29.31;31.48;100353.80;79012;277;3027244;-75
2023/06/16 10:02:04;;;;;;;4.10;3.60;;;;;;;29.32;31.43;100350.42;79039;277;3030811;-75
2023/06/16 10:04:59;;;;;;;4.40;3.90;;;;;;;29.56;31.42;100349.43;79011;277;3028295;-75
2023/06/16 10:07:35;;;;;;;4.90;4.50;;;;;;;29.78;30.63;100352.68;78997;277;3028487;-75
2023/06/16 10:10:14;;;;;;;5.50;4.60;;;;;;;29.87;31.00;100353.44;78983;277;3027607;-75
2023/06/16 10:12:53;;;;;;;4.90;4.50;;;;;;;29.80;30.33;100349.23;78958;277;3026891;-75
2023/06/16 10:15:31;;;;;;;5.70;3.90;;;;;;;29.63;30.06;100351.14;78980;277;3027229;-75
2023/06/16 10:18:07;;;;;;;4.80;3.80;;;;;;;29.56;30.54;100346.67;78957;277;3027556;-75
2023/06/16 10:20:43;;;;;;;4.90;4.40;;;;;;;29.71;30.34;100345.84;78988;277;3027147;-75
2023/06/16 10:23:19;;;;;;;4.70;4.30;;;;;;;29.87;29.68;100339.27;78956;277;3027693;-75
2023/06/16 10:25:54;;;;;;;4.00;3.60;;;;;;;29.81;29.14;100335.74;79012;277;3026748;-74
2023/06/16 10:28:31;;;;;;;7.10;4.10;;;;;;;29.88;29.44;100335.55;79702;277;3012746;-74
2023/06/16 10:31:08;;;;;;;4.60;4.20;;;;;;;29.98;29.79;100334.64;78991;278;3027953;-74
2023/06/16 10:33:59;;;;;;;7.40;4.90;;;;;;;30.13;30.27;100334.11;78954;278;3027497;-72
2023/06/16 10:36:38;;;;;;;4.50;4.10;;;;;;;30.25;29.79;100331.42;79051;277;3026999;-73
2023/06/16 10:39:16;;;;;;;4.80;4.20;;;;;;;30.27;29.63;100332.57;78928;277;3027020;-72
2023/06/16 10:41:57;;;;;;;4.60;4.20;;;;;;;30.20;30.17;100330.54;78980;277;3026933;-72
2023/06/16 10:44:35;;;;;;;4.80;3.60;;;;;;;30.24;30.23;100326.10;78978;278;3027264;-73
2023/06/16 10:47:32;;;;;;;5.00;4.50;;;;;;;30.30;29.95;100328.75;78962;277;3028154;-73
2023/06/16 10:50:10;;;;;;;5.70;4.00;;;;;;;30.35;30.21;100326.58;78944;266;3027212;-74
2023/06/16 10:52:57;;;;;;;5.30;4.00;;;;;;;30.54;30.01;100322.08;79015;277;3027856;-77
2023/06/16 10:55:40;;;;;;;6.50;5.20;;;;;;;30.68;29.87;100326.70;79015;277;3028696;-76
2023/06/16 10:58:32;;;;;;;8.10;5.30;;;;;;;30.73;29.37;100324.04;79104;277;3027044;-79
2023/06/16 11:01:27;;;;;;;8.10;6.30;;;;;;;30.60;28.48;100320.25;79113;277;3027617;-81
2023/06/16 11:04:08;;;;;;;6.30;5.30;;;;;;;30.24;29.42;100321.45;79192;277;3027395;-80
2023/06/16 11:07:13;;;;;;;7.80;6.10;;;;;;;30.19;28.90;100317.39;79041;277;3028881;-76
2023/06/16 11:09:58;;;;;;;6.60;5.80;;;;;;;29.94;29.54;100314.48;79006;277;3027151;-76
2023/06/16 11:12:34;;;;;;;8.20;5.10;;;;;;;29.87;29.62;100314.21;78979;277;3026548;-75
2023/06/16 11:15:14;;;;;;;5.60;5.10;;;;;;;29.90;30.02;100312.88;79139;277;3026888;-78
2023/06/16 11:17:53;;;;;;;7.70;4.90;;;;;;;29.91;29.76;100308.34;78965;277;3027357;-75
2023/06/16 11:20:35;;;;;;;6.20;4.90;;;;;;;29.86;30.07;100310.42;79076;278;3027334;-77
2023/06/16 11:23:11;;;;;;;9.90;5.40;;;;;;;29.91;30.45;100311.95;78625;277;3027174;-75
2023/06/16 11:25:48;;;;;;;5.60;4.90;;;;;;;29.92;29.62;100312.88;79008;278;3028178;-78
2023/06/16 11:28:25;;;;;;;6.60;5.00;;;;;;;29.77;29.64;100308.71;78993;277;3027854;-79
2023/06/16 11:31:01;;;;;;;5.60;5.00;;;;;;;29.60;29.77;100308.48;79144;277;3029058;-79
2023/06/16 11:33:37;;;;;;;5.80;5.20;;;;;;;29.50;29.85;100306.39;79119;278;3027945;-79
2023/06/16 11:36:30;;;;;;;6.70;5.60;;;;;;;29.41;29.37;100304.83;79145;278;3027332;-78
2023/06/16 11:39:13;;;;;;;5.80;5.30;;;;;;;29.24;30.15;100300.52;79129;279;3027037;-78
2023/06/16 11:41:57;;;;;;;6.00;5.50;;;;;;;29.15;30.68;100299.20;79005;278;3028047;-75
2023/06/16 11:44:33;;;;;;;5.90;5.20;;;;;;;29.05;29.81;100295.95;78966;278;3027310;-74
2023/06/16 11:47:10;;;;;;;5.80;5.20;;;;;;;28.88;30.03;100291.77;78959;279;3026885;-75
2023/06/16 11:49:47;;;;;;;6.30;5.70;;;;;;;28.80;30.49;100295.39;78953;279;3027944;-77
2023/06/16 11:52:23;;;;;;;5.70;5.10;;;;;;;28.74;30.83;100297.39;78966;278;3027620;-75
2023/06/16 11:55:01;;;;;;;6.50;5.90;;;;;;;28.60;30.58;100296.98;78984;278;3028254;-75
2023/06/16 11:57:41;;;;;;;6.80;5.70;;;;;;;28.43;30.48;100292.34;78952;278;3027173;-78